Time;durP1;ratioP1;P1;durP2;ratioP2;P2;SDS_P1;SDS_P2;PMS_P1;PMS_P2;Temp;Humidity;BMP_temperature;BMP_pressure;BME280_temperature;BME280_humidity;BME280_pressure;Samples;Min_cycle;Max_cycle;Signal;HPM_P1;HPM_P2
2023/08/14 00:04:31;;;;;;;7.28;4.93;;;;;;;21.01;60.53;101230.38;15552253;28;20053;-58
2023/08/14 00:12:08;;;;;;;7.88;4.65;;;;;;;20.73;61.42;101228.09;15564224;28;20428;-56
2023/08/14 00:19:41;;;;;;;8.70;5.00;;;;;;;20.45;62.36;101235.53;15612151;28;20172;-57
2023/08/14 00:27:15;;;;;;;;;;;;;;;20.35;62.79;101233.59;15594266;28;20041;-57
2023/08/14 00:34:48;;;;;;;7.78;4.63;;;;;;;20.37;62.88;101238.75;15594202;28;19932;-58
2023/08/14 00:42:22;;;;;;;7.88;4.93;;;;;;;20.09;64.53;101235.31;15593697;28;20416;-57
2023/08/14 00:49:57;;;;;;;6.95;4.85;;;;;;;19.98;65.14;101227.31;15593580;28;20151;-54
2023/08/14 00:57:31;;;;;;;11.07;5.15;;;;;;;19.86;65.35;101232.94;15626629;28;20044;-59
2023/08/14 01:05:07;;;;;;;9.48;4.93;;;;;;;19.75;65.99;101231.22;15610325;28;20061;-57
2023/08/14 01:12:50;;;;;;;7.57;5.50;;;;;;;19.64;66.35;101245.84;15560927;28;20126;-60
2023/08/14 01:20:26;;;;;;;10.73;5.85;;;;;;;19.45;66.84;101246.19;15531690;28;20057;-60
2023/08/14 01:28:02;;;;;;;8.10;6.13;;;;;;;19.44;66.94;101240.97;15540638;28;20121;-58
2023/08/14 01:35:40;;;;;;;11.23;6.20;;;;;;;19.41;67.27;101244.22;15561444;28;20054;-58
2023/08/14 01:43:19;;;;;;;9.30;6.70;;;;;;;19.47;67.44;101238.56;15542528;28;20037;-59
2023/08/14 01:50:53;;;;;;;13.98;6.20;;;;;;;19.14;68.20;101246.94;15542605;28;20049;-58
2023/08/14 01:58:28;;;;;;;9.13;6.05;;;;;;;19.34;67.49;101238.97;15541760;28;20045;-58
2023/08/14 02:06:01;;;;;;;7.80;6.05;;;;;;;19.17;67.58;101230.91;15540955;28;20046;-58
2023/08/14 02:13:35;;;;;;;8.52;6.22;;;;;;;19.08;68.17;101235.16;15548601;28;20046;-58
2023/08/14 02:21:08;;;;;;;8.25;6.45;;;;;;;19.08;67.90;101240.59;15634151;28;20045;-58
2023/08/14 02:28:42;;;;;;;12.38;6.47;;;;;;;19.00;67.73;101233.72;15600613;28;20135;-59
2023/08/14 02:36:15;;;;;;;9.50;6.47;;;;;;;18.72;68.42;101233.91;15617826;28;20037;-60
2023/08/14 02:43:49;;;;;;;;;;;;;;;18.71;68.76;101240.41;15619206;28;20159;-58
2023/08/14 02:51:22;;;;;;;9.65;6.40;;;;;;;18.63;68.46;101238.91;15600243;28;19955;-58
2023/08/14 02:58:56;;;;;;;;;;;;;;;18.59;68.43;101246.75;15600411;28;20033;-59
2023/08/14 03:06:31;;;;;;;7.60;6.47;;;;;;;18.52;68.36;101231.72;15599452;28;19964;-54
2023/08/14 03:14:07;;;;;;;7.50;6.68;;;;;;;18.52;68.22;101245.31;15570005;28;20046;-53
2023/08/14 03:21:42;;;;;;;8.00;6.85;;;;;;;18.27;68.55;101256.59;15520990;28;20129;-51
2023/08/14 03:29:16;;;;;;;7.82;6.93;;;;;;;18.08;69.36;101248.72;15536978;28;20042;-55
2023/08/14 03:36:49;;;;;;;8.98;6.75;;;;;;;17.95;69.39;101245.50;15521722;28;20188;-54
2023/08/14 03:44:26;;;;;;;10.63;7.00;;;;;;;17.72;70.35;101247.31;15519598;28;20643;-50
2023/08/14 03:51:58;;;;;;;8.05;6.82;;;;;;;17.78;69.90;101253.66;15518222;28;20088;-50
2023/08/14 03:59:33;;;;;;;10.30;7.40;;;;;;;17.78;69.73;101240.09;15534723;28;20399;-52
2023/08/14 04:07:06;;;;;;;12.02;6.80;;;;;;;17.75;69.96;101233.25;15552000;28;20064;-57
2023/08/14 04:14:40;;;;;;;;;;;;;;;17.74;69.94;101230.78;15585093;28;20053;-54
2023/08/14 04:22:13;;;;;;;9.82;6.20;;;;;;;17.78;69.69;101219.19;15594821;28;19921;-50
2023/08/14 04:29:47;;;;;;;7.28;6.35;;;;;;;17.82;69.79;101230.38;15578469;28;20571;-51
2023/08/14 04:37:21;;;;;;;12.55;7.03;;;;;;;17.84;70.79;101244.53;15612119;28;20050;-54
2023/08/14 04:44:55;;;;;;;8.27;6.22;;;;;;;18.02;70.03;101238.03;15610780;28;20033;-53
2023/08/14 04:52:28;;;;;;;8.75;7.00;;;;;;;18.15;69.86;101234.16;15592591;28;20100;-53
2023/08/14 05:00:05;;;;;;;9.13;6.25;;;;;;;18.54;69.69;101243.97;15593006;28;20091;-52
2023/08/14 05:07:39;;;;;;;7.95;5.60;;;;;;;18.69;68.83;101245.28;15576335;28;20053;-50
2023/08/14 05:15:14;;;;;;;7.63;5.82;;;;;;;18.53;68.87;101246.94;15554705;28;20058;-56
2023/08/14 05:22:47;;;;;;;13.73;6.55;;;;;;;18.55;69.39;101247.50;15531588;28;20065;-54
2023/08/14 05:30:22;;;;;;;9.98;5.82;;;;;;;19.22;67.54;101247.28;15530379;28;20069;-52
2023/08/14 05:37:56;;;;;;;11.88;5.72;;;;;;;19.61;66.24;101247.16;15530081;28;20416;-54
2023/08/14 05:45:31;;;;;;;9.40;5.35;;;;;;;19.91;65.53;101251.22;15547608;28;20058;-53
2023/08/14 05:53:05;;;;;;;10.38;5.50;;;;;;;20.67;64.96;101250.97;15529767;28;20148;-53
2023/08/14 06:00:40;;;;;;;8.40;4.50;;;;;;;21.10;63.34;101236.94;15529138;28;20467;-57
2023/08/14 06:08:13;;;;;;;5.30;4.53;;;;;;;21.06;62.09;101254.13;15547759;28;20061;-54
2023/08/14 06:15:48;;;;;;;15.52;4.90;;;;;;;21.53;61.29;101259.47;15584013;28;20046;-50
2023/08/14 06:23:22;;;;;;;9.00;4.65;;;;;;;22.04;61.37;101261.41;15601087;28;20081;-51
2023/08/14 06:31:01;;;;;;;7.05;4.72;;;;;;;22.06;61.67;101262.78;15600627;28;20719;-53
2023/08/14 06:38:35;;;;;;;8.07;4.40;;;;;;;22.49;60.82;101260.56;15600845;28;20041;-53
2023/08/14 06:46:09;;;;;;;6.43;3.80;;;;;;;23.31;58.10;101261.06;15618176;28;20046;-54
2023/08/14 06:53:42;;;;;;;7.78;4.25;;;;;;;23.41;58.35;101263.78;15599364;28;20042;-56
2023/08/14 07:01:16;;;;;;;7.70;3.75;;;;;;;23.85;57.84;101264.84;15600026;28;20041;-52
2023/08/14 07:08:49;;;;;;;7.97;3.53;;;;;;;24.27;57.33;101260.66;15617166;28;20132;-51
2023/08/14 07:16:24;;;;;;;7.10;3.30;;;;;;;25.02;54.46;101258.16;15551482;28;20117;-57
2023/08/14 07:23:57;;;;;;;9.88;3.28;;;;;;;25.40;53.72;101253.53;15552996;28;20514;-56
2023/08/14 07:31:31;;;;;;;5.88;2.70;;;;;;;26.19;49.84;101248.16;15536484;28;20050;-51
2023/08/14 07:39:05;;;;;;;5.68;2.90;;;;;;;26.77;49.35;101235.78;15554812;28;20049;-56
2023/08/14 07:46:40;;;;;;;4.10;2.90;;;;;;;27.28;47.10;101251.25;15553721;28;20465;-54
2023/08/14 07:54:13;;;;;;;5.40;2.35;;;;;;;27.16;45.09;101262.78;15553209;28;20050;-56
2023/08/14 08:01:47;;;;;;;8.13;2.40;;;;;;;27.34;45.60;101285.03;15535356;28;20042;-53
2023/08/14 08:09:21;;;;;;;5.93;2.00;;;;;;;26.68;45.10;101295.47;15533901;28;20065;-57
2023/08/14 08:16:56;;;;;;;5.97;2.40;;;;;;;26.54;45.47;101289.94;15602920;28;20056;-55
2023/08/14 08:24:30;;;;;;;3.38;1.90;;;;;;;27.61;44.03;101287.69;15612130;28;20068;-56
2023/08/14 08:32:04;;;;;;;3.25;1.85;;;;;;;27.48;41.03;101280.28;15611960;28;20119;-56
2023/08/14 08:39:37;;;;;;;4.90;2.05;;;;;;;27.70;42.94;101266.53;15611854;28;20139;-52
2023/08/14 08:47:16;;;;;;;2.95;1.75;;;;;;;27.65;41.53;101263.88;15594587;28;20080;-53
2023/08/14 08:54:49;;;;;;;6.10;2.60;;;;;;;28.64;39.85;101258.34;15611257;28;20049;-57
2023/08/14 09:02:23;;;;;;;3.17;2.10;;;;;;;28.07;38.99;101244.38;15610699;28;20132;-57
2023/08/14 09:09:58;;;;;;;3.50;1.83;;;;;;;28.16;39.64;101250.75;15669207;23;20057;-50
2023/08/14 09:17:33;;;;;;;5.68;2.25;;;;;;;28.42;38.42;101240.69;15676330;28;20452;-52
2023/08/14 09:25:08;;;;;;;3.92;1.75;;;;;;;28.80;36.33;101242.13;15676976;28;20045;-57
2023/08/14 09:32:43;;;;;;;6.70;1.70;;;;;;;29.52;37.27;101226.91;15659087;28;20052;-53
2023/08/14 09:40:18;;;;;;;5.15;1.70;;;;;;;28.96;34.03;101224.00;15676322;28;20060;-55
2023/08/14 09:47:57;;;;;;;4.50;1.60;;;;;;;29.72;34.57;101226.28;15683039;28;20095;-56
2023/08/14 09:55:34;;;;;;;5.73;1.87;;;;;;;29.99;33.72;101217.59;15688230;28;20079;-54
2023/08/14 10:03:11;;;;;;;3.17;1.95;;;;;;;30.19;34.76;101215.28;15687735;28;20048;-57
2023/08/14 10:10:44;;;;;;;4.00;1.80;;;;;;;30.22;33.57;101242.34;15684519;28;20509;-57
2023/08/14 10:18:23;;;;;;;4.57;1.77;;;;;;;30.74;32.21;101237.38;15607574;28;20053;-55
2023/08/14 10:25:57;;;;;;;4.53;1.80;;;;;;;30.87;31.34;101224.44;15624840;28;20037;-53
2023/08/14 10:33:32;;;;;;;3.25;1.73;;;;;;;31.33;31.30;101230.16;15625150;28;20045;-53
2023/08/14 10:41:07;;;;;;;3.30;1.42;;;;;;;31.38;32.12;101221.63;15622969;28;20513;-56
2023/08/14 10:48:43;;;;;;;4.05;1.60;;;;;;;31.45;32.86;101219.94;15622653;28;20095;-55
2023/08/14 10:56:18;;;;;;;3.85;1.60;;;;;;;31.09;32.75;101200.28;15623328;28;20483;-53
2023/08/14 11:04:05;;;;;;;5.68;1.38;;;;;;;31.66;32.17;101192.16;15622973;28;20109;-52
2023/08/14 11:11:45;;;;;;;4.55;1.58;;;;;;;32.23;31.64;101182.22;15630783;28;20051;-52
2023/08/14 11:19:19;;;;;;;2.78;1.50;;;;;;;31.58;31.91;101181.13;15683561;28;20485;-54
2023/08/14 11:26:53;;;;;;;3.05;1.73;;;;;;;31.89;33.51;101180.66;15683964;28;20071;-56
2023/08/14 11:34:28;;;;;;;2.97;1.60;;;;;;;32.67;31.34;101174.91;15681549;28;20048;-52
2023/08/14 11:42:02;;;;;;;3.08;1.50;;;;;;;33.15;30.34;101162.06;15682084;28;20049;-55
2023/08/14 11:49:38;;;;;;;2.88;1.30;;;;;;;33.41;31.02;101158.84;15681610;28;20486;-55
2023/08/14 11:57:13;;;;;;;2.63;1.35;;;;;;;32.99;30.32;101158.44;15680157;28;20413;-55
2023/08/14 12:04:52;;;;;;;3.40;1.67;;;;;;;33.14;29.52;101148.53;15680576;28;20045;-54
2023/08/14 12:12:26;;;;;;;2.83;1.42;;;;;;;33.16;29.91;101140.66;15679982;28;20037;-53
2023/08/14 12:20:04;;;;;;;4.55;2.00;;;;;;;32.80;29.85;101130.41;15617327;28;20125;-55
2023/08/14 12:27:37;;;;;;;4.28;1.50;;;;;;;33.72;29.37;101119.13;15633401;28;20049;-53
2023/08/14 12:35:11;;;;;;;4.10;1.73;;;;;;;33.37;29.88;101105.03;15617695;28;20053;-55
2023/08/14 12:42:45;;;;;;;2.47;1.40;;;;;;;33.78;30.37;101100.19;15615795;28;20049;-55
2023/08/14 12:50:20;;;;;;;3.10;1.65;;;;;;;33.86;28.21;101087.25;15616466;28;20409;-54
2023/08/14 12:57:53;;;;;;;4.28;1.80;;;;;;;34.58;28.22;101081.41;15616705;28;20421;-54
2023/08/14 13:05:28;;;;;;;3.75;2.15;;;;;;;34.47;29.03;101073.63;15614953;28;20076;-52
2023/08/14 13:13:02;;;;;;;3.45;1.70;;;;;;;34.24;29.20;101092.16;15635144;28;20033;-57
2023/08/14 13:20:36;;;;;;;3.80;1.77;;;;;;;34.52;27.43;101083.66;15682908;28;20071;-55
2023/08/14 13:28:10;;;;;;;5.75;1.85;;;;;;;32.22;30.59;101095.28;15688500;28;20037;-55
2023/08/14 13:35:45;;;;;;;5.45;2.10;;;;;;;32.07;30.57;101095.97;15688409;28;20052;-52
2023/08/14 13:43:18;;;;;;;4.25;1.92;;;;;;;32.29;30.97;101083.59;15689160;28;20049;-54
2023/08/14 13:50:53;;;;;;;4.50;1.80;;;;;;;31.77;33.21;101087.03;15671269;28;20051;-55
2023/08/14 13:58:27;;;;;;;3.40;1.90;;;;;;;31.66;33.23;101080.31;15689522;28;20049;-56
2023/08/14 14:06:02;;;;;;;3.20;1.95;;;;;;;31.22;35.03;101066.91;15688309;28;20106;-57
2023/08/14 14:13:37;;;;;;;5.25;2.33;;;;;;;31.06;35.99;101059.53;15661260;28;20064;-54
2023/08/14 14:21:11;;;;;;;7.35;2.42;;;;;;;31.24;35.55;101034.09;15624950;28;20049;-57
2023/08/14 14:28:45;;;;;;;5.95;2.30;;;;;;;31.63;36.71;101076.25;15622881;28;20099;-55
2023/08/14 14:36:20;;;;;;;5.93;2.63;;;;;;;30.84;37.38;101069.88;15622546;28;20125;-56
2023/08/14 14:43:53;;;;;;;4.78;1.98;;;;;;;30.62;37.38;101061.88;15624068;28;20068;-59
2023/08/14 14:51:28;;;;;;;5.70;2.60;;;;;;;30.41;38.66;101079.31;15623209;28;20038;-57
2023/08/14 14:59:01;;;;;;;6.88;2.50;;;;;;;29.62;39.95;101063.41;15677945;28;20079;-57
2023/08/14 15:06:36;;;;;;;4.55;2.00;;;;;;;29.33;41.00;101047.50;15691196;22;20060;-70
2023/08/14 15:14:09;;;;;;;6.07;2.13;;;;;;;29.41;42.61;101046.69;15679432;28;20041;-71
2023/08/14 15:21:44;;;;;;;5.38;2.30;;;;;;;29.45;42.52;101044.88;15679002;28;20049;-71
2023/08/14 15:29:17;;;;;;;10.55;6.78;;;;;;;29.03;42.62;101036.34;15676894;28;20048;-70
2023/08/14 15:36:52;;;;;;;10.77;4.82;;;;;;;28.91;44.66;101044.47;15678265;28;20041;-72
2023/08/14 15:44:27;;;;;;;14.52;5.68;;;;;;;29.00;42.82;101037.00;15677351;28;20068;-69
2023/08/14 15:52:02;;;;;;;7.80;2.42;;;;;;;28.57;44.19;101048.88;15677638;28;20059;-70
2023/08/14 15:59:35;;;;;;;4.03;2.40;;;;;;;29.06;43.54;101070.84;15676917;28;20052;-70
2023/08/14 16:07:10;;;;;;;6.60;2.53;;;;;;;28.59;44.39;101056.84;15676336;28;20421;-70
2023/08/14 16:14:43;;;;;;;5.78;2.85;;;;;;;29.17;44.84;101058.28;15643868;28;20462;-70
2023/08/14 16:22:18;;;;;;;6.82;3.03;;;;;;;29.07;45.90;101042.84;15613506;28;20331;-72
2023/08/14 16:29:51;;;;;;;15.10;3.20;;;;;;;28.69;48.47;101043.50;15613714;28;20100;-72
2023/08/14 16:37:25;;;;;;;4.95;2.97;;;;;;;28.37;46.35;101066.88;15614531;28;20045;-70
2023/08/14 16:44:59;;;;;;;4.45;2.50;;;;;;;28.55;45.92;101064.16;15614582;28;20577;-70
2023/08/14 16:52:34;;;;;;;3.70;2.60;;;;;;;28.52;44.85;101065.59;15612401;28;20045;-71
2023/08/14 17:00:20;;;;;;;8.20;2.70;;;;;;;28.40;45.84;101037.81;15613388;28;20042;-69
2023/08/14 17:07:55;;;;;;;6.72;3.40;;;;;;;28.01;48.15;101053.28;15612235;28;20046;-69
2023/08/14 17:15:38;;;;;;;7.07;3.72;;;;;;;27.48;51.86;101047.84;15651944;28;20052;-71
2023/08/14 17:23:15;;;;;;;8.35;3.78;;;;;;;27.22;54.18;101065.03;15673070;28;20053;-70
2023/08/14 17:30:52;;;;;;;6.35;3.60;;;;;;;27.15;55.37;101051.72;15654297;28;20043;-70
2023/08/14 17:38:27;;;;;;;8.55;3.20;;;;;;;27.05;55.94;101056.66;15672085;28;20057;-71
2023/08/14 17:46:02;;;;;;;3.90;2.33;;;;;;;25.87;57.13;101063.91;15656051;28;20057;-71
2023/08/14 17:53:37;;;;;;;4.60;2.17;;;;;;;25.68;57.70;101066.69;15676063;28;20044;-70
2023/08/14 18:01:10;;;;;;;6.30;2.08;;;;;;;25.52;58.22;101068.94;15669614;28;20146;-70
2023/08/14 18:08:45;;;;;;;3.08;2.20;;;;;;;25.75;57.64;101064.38;15678864;28;20041;-70
2023/08/14 18:16:18;;;;;;;5.28;2.20;;;;;;;25.69;58.03;101071.06;15636220;28;20039;-69
2023/08/14 18:23:53;;;;;;;5.00;2.47;;;;;;;25.26;59.72;101081.47;15620706;28;20056;-70
2023/08/14 18:31:26;;;;;;;5.45;2.75;;;;;;;24.72;61.31;101102.88;15619239;28;20213;-70
2023/08/14 18:39:01;;;;;;;5.28;2.70;;;;;;;24.91;60.60;101097.41;15659251;28;20077;-70
2023/08/14 18:46:35;;;;;;;3.67;2.90;;;;;;;24.71;61.97;101106.72;15655840;28;20479;-70
2023/08/14 18:54:09;;;;;;;5.30;3.20;;;;;;;24.67;62.62;101094.72;15623168;28;20049;-72
2023/08/14 19:01:43;;;;;;;4.43;3.15;;;;;;;24.76;62.14;101103.09;15621395;28;20133;-71
2023/08/14 19:09:18;;;;;;;6.50;3.10;;;;;;;23.92;64.91;101104.41;15624168;28;20466;-71
2023/08/14 19:16:51;;;;;;;4.95;2.60;;;;;;;23.83;65.08;101103.41;15671948;28;20057;-70
2023/08/14 19:24:25;;;;;;;4.82;3.10;;;;;;;23.82;64.75;101081.75;15680662;28;20045;-69
2023/08/14 19:31:59;;;;;;;3.65;2.63;;;;;;;23.95;64.20;101088.47;15661354;28;20099;-69
2023/08/14 19:39:33;;;;;;;4.75;2.85;;;;;;;23.84;65.09;101101.47;15679347;28;20462;-70
2023/08/14 19:47:07;;;;;;;4.60;2.95;;;;;;;24.05;64.28;101088.34;15678350;28;20537;-70
2023/08/14 19:54:41;;;;;;;8.52;3.05;;;;;;;23.60;66.00;101069.34;15659837;28;20513;-71
2023/08/14 20:02:16;;;;;;;4.40;3.00;;;;;;;23.05;67.79;101076.94;15678215;28;20564;-72
2023/08/14 20:09:50;;;;;;;4.65;3.00;;;;;;;23.59;66.21;101069.63;15677862;28;20057;-69
2023/08/14 20:17:23;;;;;;;5.97;3.20;;;;;;;23.38;66.39;101074.47;15620560;28;20048;-70
2023/08/14 20:25:00;;;;;;;6.93;3.25;;;;;;;23.14;67.31;101072.50;15614891;28;20049;-69
2023/08/14 20:32:33;;;;;;;5.28;3.15;;;;;;;23.67;65.42;101074.50;15611085;28;20046;-70
2023/08/14 20:40:10;;;;;;;8.68;3.17;;;;;;;23.72;65.12;101065.41;15675011;28;20528;-71
2023/08/14 20:47:43;;;;;;;5.30;3.53;;;;;;;23.30;66.80;101061.41;15673480;28;20103;-70
2023/08/14 20:55:18;;;;;;;5.28;3.22;;;;;;;23.30;66.68;101080.56;15772484;22;20119;-52
2023/08/14 21:02:51;;;;;;;4.22;3.33;;;;;;;23.15;67.16;101076.84;15930981;27;20071;-54
2023/08/14 21:10:25;;;;;;;7.68;3.78;;;;;;;23.51;66.23;101081.22;15743317;22;20049;-54
2023/08/14 21:18:01;;;;;;;7.75;3.80;;;;;;;23.65;65.71;101074.81;15739384;28;20102;-56
2023/08/14 21:25:36;;;;;;;6.70;4.13;;;;;;;23.41;66.17;101065.69;15739036;28;20071;-54
2023/08/14 21:33:10;;;;;;;7.22;4.05;;;;;;;23.33;67.13;101058.91;15739666;28;20529;-54
2023/08/14 21:40:44;;;;;;;7.10;4.35;;;;;;;23.30;67.14;101053.19;15706177;28;20049;-52
2023/08/14 21:48:19;;;;;;;8.43;4.20;;;;;;;23.25;67.36;101048.56;15750885;28;20049;-55
2023/08/14 21:55:53;;;;;;;9.10;4.72;;;;;;;23.39;66.47;101041.31;15751028;28;20109;-51
2023/08/14 22:03:26;;;;;;;5.75;4.68;;;;;;;23.36;67.16;101063.81;15729018;28;20135;-50
2023/08/14 22:11:01;;;;;;;9.55;5.63;;;;;;;23.43;67.03;101058.81;15727703;28;20039;-50
2023/08/14 22:18:36;;;;;;;7.82;5.38;;;;;;;23.35;66.79;101056.69;15811771;28;20338;-50
2023/08/14 22:26:10;;;;;;;6.80;5.35;;;;;;;23.38;67.28;101061.59;15811207;28;20127;-51
2023/08/14 22:33:43;;;;;;;6.50;4.75;;;;;;;23.36;67.53;101093.13;15811618;28;20062;-54
2023/08/14 22:41:18;;;;;;;6.50;5.82;;;;;;;22.10;72.95;101137.28;15810397;28;20481;-52
2023/08/14 22:48:51;;;;;;;10.88;6.07;;;;;;;21.83;74.13;101138.44;15810746;28;20052;-50
2023/08/14 22:56:25;;;;;;;8.05;5.65;;;;;;;21.57;74.25;101104.03;15809295;28;20090;-52
2023/08/14 23:03:58;;;;;;;8.25;4.68;;;;;;;21.89;73.06;101156.47;15791355;28;20046;-52
2023/08/14 23:11:33;;;;;;;4.47;3.70;;;;;;;22.17;72.11;101183.50;15800362;28;20139;-51
2023/08/14 23:19:06;;;;;;;6.63;3.20;;;;;;;22.86;70.30;101242.94;15721901;28;20098;-53
2023/08/14 23:26:41;;;;;;;6.70;3.80;;;;;;;23.19;68.84;101246.09;15745387;28;20044;-50
2023/08/14 23:34:14;;;;;;;10.57;4.28;;;;;;;22.54;74.68;101233.19;15745023;28;20048;-50
2023/08/14 23:41:48;;;;;;;5.03;2.63;;;;;;;21.46;77.02;101157.06;15744193;28;20052;-52
2023/08/14 23:49:21;;;;;;;4.85;3.00;;;;;;;22.17;74.75;101126.09;15743560;28;20048;-51
2023/08/14 23:56:56;;;;;;;8.07;3.53;;;;;;;22.01;75.11;101090.59;15743165;28;20084;-51
